Detall de PIREP

Printer-friendly versionPDF version

[2013/02/27 10:28:00]
Flight IATA:CT1004
Pilot Number:042
Company ICAO:CAT
Aircraft Type:C750/F
PAX:4
Departing Airport: LOWI
Destination Airport: LEBL
Alternate Airport:LEPA
Online: VATSIM
Route:RTT Y703 INN UM726 BZO UM984 DIVKO UN975 BISBA
Flight Level:F350
No Slew and time accel
No pause
Crash detect
Detect pilot in Cockpit between each 30 and 45 minutes
10:28 Zero fuel Weight: 22920 Lbs, Fuel Weight: 12940 Lbs
10:28 VATSIM:LOWI 270950Z 26006KT 9999 FEW012 SCT030 01/M02 Q1025 R08/19//54 NOSIG
10:28 VATSIM:LEBL 271000Z 33007KT 290V360 9999 FEW025 09/M02 Q1022 NOSIG
10:29 VOICE CATALONIAN/MWC 2013 BARCELONA CHARTER
10:29 Parking Brakes off
10:50 Take-off
10:50 Take off Weight: 35651 Lbs
10:50 Wind: 253º @ 007 Knots Heading: 259º
10:50 POS N47º 15´ 30´´ E011º 19´ 46´´
10:50 Gear Up: 154 Knots
10:50 Flaps:4 at 154 Knots
10:52 Flaps:3 at 232 Knots
10:52 Flaps:0 at 274 Knots
11:05 Wind:328º@040 Knots Heading: 060º Ground Speed: 501 Knots Altitude 29734 ft
11:11 TOC
11:11 Fuel Weight: 11820 Lb
11:11 TOD
11:11 Fuel Weight: 11819 Lb
11:11 TOC
11:11 Fuel Weight: 11815 Lb
11:20 Wind:328º@044 Knots Heading: 248º Ground Speed: 484 Knots Altitude 35137 ft
11:35 Wind:328º@058 Knots Heading: 220º Ground Speed: 513 Knots Altitude 35229 ft
11:50 Wind:314º@067 Knots Heading: 254º Ground Speed: 462 Knots Altitude 35285 ft
12:04 TOD
12:04 Fuel Weight: 10296 Lb
12:05 Wind:312º@066 Knots Heading: 228º Ground Speed: 502 Knots Altitude 34665 ft
12:20 Wind:341º@015 Knots Heading: 234º Ground Speed: 268 Knots Altitude 6092 ft
12:23 Flaps:2 at 176 Knots
12:23 Flaps:3 at 169 Knots
12:24 Gear Down: 164 Knots
12:24 Flaps:4 at 164 Knots
12:25 Flaps:5 at 151 Knots
12:27 TouchDown:Rate -232 ft/min Speed: 103 Knots
12:28 VATSIM:LEBL 271200Z VRB02KT 9999 FEW020 SCT050 11/M02 Q1021 NOSIG
12:28 Land
12:28 Wind:212º@004 Knots
12:28 Heading: 247º
12:28 Flight Duration: 01:38
12:28 Landing Weight: 32980 Lbs
12:28 POS N41º 17´ 54´´ E002º 04´ 56´´
12:34 Parking brakes on
12:34 Block to Block Duration: 02:05
12:34 Final Fuel: 9997 Lbls
12:34 Spent Fuel: 2943 Lbls
12:34 Flight Length: 674 NM
12:34 TOD Land Length: 118 NM

Exportar CSV

Powered by Drupal - Modified by Danger4k